Time;durP1;ratioP1;P1;durP2;ratioP2;P2;SDS_P1;SDS_P2;PMS_P1;PMS_P2;Temp;Humidity;BMP_temperature;BMP_pressure;BME280_temperature;BME280_humidity;BME280_pressure;Samples;Min_cycle;Max_cycle;Signal;HPM_P1;HPM_P2
2021/12/26 00:02:25;;;;;;;1.73;1.63;;;-6.20;99.90;;;;;;5046941;28;20047;-72
2021/12/26 00:04:51;;;;;;;3.80;2.53;;;-6.10;99.90;;;;;;5035754;28;20037;-72
2021/12/26 00:07:17;;;;;;;2.40;1.85;;;-6.10;99.90;;;;;;5049311;28;20045;-72
2021/12/26 00:09:43;;;;;;;3.40;2.00;;;-6.10;99.90;;;;;;5033003;28;20394;-72
2021/12/26 00:12:09;;;;;;;6.70;2.03;;;-6.10;99.90;;;;;;5035352;28;20107;-72
2021/12/26 00:14:35;;;;;;;3.20;2.20;;;-6.10;99.90;;;;;;5048277;28;20053;-72
2021/12/26 00:17:03;;;;;;;1.95;1.77;;;-6.10;99.90;;;;;;5055334;28;20040;-72
2021/12/26 00:19:28;;;;;;;8.13;2.15;;;-6.00;99.90;;;;;;5047937;28;20056;-72
2021/12/26 00:21:54;;;;;;;2.55;2.20;;;-6.00;99.90;;;;;;5034354;28;20041;-72
2021/12/26 00:24:20;;;;;;;1.77;1.63;;;-5.90;99.90;;;;;;5093833;28;20068;-72
2021/12/26 00:26:46;;;;;;;2.97;1.95;;;-5.90;99.90;;;;;;5032002;28;20052;-72
2021/12/26 00:29:12;;;;;;;4.93;2.45;;;-5.90;99.90;;;;;;5047563;28;20096;-72
2021/12/26 00:31:38;;;;;;;6.70;2.10;;;-5.90;99.90;;;;;;5040227;28;20045;-71
2021/12/26 00:34:05;;;;;;;1.85;1.63;;;-5.90;99.90;;;;;;5047821;28;20048;-72
2021/12/26 00:36:31;;;;;;;3.58;2.40;;;-5.80;99.90;;;;;;5045148;28;20049;-72
2021/12/26 00:38:56;;;;;;;2.63;1.80;;;-5.80;99.90;;;;;;5080437;28;20052;-72
2021/12/26 00:41:22;;;;;;;3.13;2.20;;;-5.80;99.90;;;;;;5045352;28;20401;-72
2021/12/26 00:43:48;;;;;;;9.10;3.20;;;-5.70;99.90;;;;;;5049406;28;20037;-71
2021/12/26 00:46:14;;;;;;;5.53;2.03;;;-5.70;99.90;;;;;;5040492;28;20064;-71
2021/12/26 00:48:40;;;;;;;1.65;1.55;;;-5.70;99.90;;;;;;5047678;28;20075;-71
2021/12/26 00:51:06;;;;;;;1.65;1.55;;;-5.70;99.90;;;;;;5082475;28;20044;-71
2021/12/26 00:53:33;;;;;;;3.97;2.75;;;-5.70;99.90;;;;;;5047863;28;20037;-71
2021/12/26 00:55:59;;;;;;;2.78;1.80;;;-5.70;99.90;;;;;;5047505;28;20501;-72
2021/12/26 00:58:25;;;;;;;2.67;1.98;;;-5.70;99.90;;;;;;5066421;28;20044;-72
2021/12/26 01:00:52;;;;;;;2.03;1.80;;;-5.70;99.90;;;;;;5052455;28;20400;-72
2021/12/26 01:03:18;;;;;;;1.35;1.27;;;-5.60;99.90;;;;;;5034302;28;20462;-72
2021/12/26 01:05:48;;;;;;;1.08;1.08;;;-5.60;99.90;;;;;;5051695;28;20044;-72
2021/12/26 01:08:16;;;;;;;2.35;1.85;;;-5.60;99.90;;;;;;5044731;28;20040;-71
2021/12/26 01:10:54;;;;;;;2.92;1.95;;;-5.70;99.90;;;;;;5035471;28;20114;-72
2021/12/26 01:13:33;;;;;;;2.88;2.22;;;-5.70;99.90;;;;;;5051746;28;20099;-71
2021/12/26 01:16:02;;;;;;;2.22;2.03;;;-5.70;99.90;;;;;;5052058;28;20087;-72
2021/12/26 01:18:30;;;;;;;1.08;1.08;;;-5.60;99.90;;;;;;5035394;28;20075;-71
2021/12/26 01:21:05;;;;;;;1.77;1.67;;;-5.60;99.90;;;;;;5051189;28;20043;-71
2021/12/26 01:23:32;;;;;;;2.22;1.48;;;-5.70;99.90;;;;;;5057721;28;20044;-71
2021/12/26 01:26:00;;;;;;;3.63;2.03;;;-5.70;99.90;;;;;;5052811;28;20039;-71
2021/12/26 01:28:29;;;;;;;2.05;1.75;;;-5.70;99.90;;;;;;5081415;28;20049;-72
2021/12/26 01:30:58;;;;;;;1.67;1.58;;;-5.70;99.90;;;;;;5018798;28;20051;-71
2021/12/26 01:33:25;;;;;;;2.38;1.80;;;-5.70;99.90;;;;;;5081006;28;20039;-71
2021/12/26 01:35:51;;;;;;;3.53;2.42;;;-5.60;99.90;;;;;;5051326;28;20032;-71
2021/12/26 01:38:18;;;;;;;3.13;2.22;;;-5.60;99.90;;;;;;5051973;28;20155;-71
2021/12/26 01:40:53;;;;;;;1.70;1.60;;;-5.60;99.90;;;;;;5050760;28;20462;-71
2021/12/26 01:43:25;;;;;;;2.47;1.90;;;-5.60;99.90;;;;;;5035917;28;20429;-71
2021/12/26 01:45:53;;;;;;;3.33;2.03;;;-5.60;99.90;;;;;;5046991;28;20041;-72
2021/12/26 01:48:20;;;;;;;4.38;2.40;;;-5.60;99.90;;;;;;5051093;28;20059;-71
2021/12/26 01:50:48;;;;;;;1.40;1.35;;;-5.70;99.90;;;;;;5050797;28;20048;-71
2021/12/26 01:53:15;;;;;;;2.33;2.10;;;-5.70;99.90;;;;;;5051449;28;20044;-71
2021/12/26 01:55:46;;;;;;;2.03;1.58;;;-5.70;99.90;;;;;;5050150;28;20409;-71
2021/12/26 01:58:12;;;;;;;1.98;1.83;;;-5.70;99.90;;;;;;5055903;28;20533;-71
2021/12/26 02:00:41;;;;;;;3.15;1.85;;;-5.70;99.90;;;;;;5053998;28;20044;-71
2021/12/26 02:03:07;;;;;;;3.72;1.83;;;-5.70;99.90;;;;;;5051314;28;20041;-71
2021/12/26 02:05:33;;;;;;;2.88;1.98;;;-5.70;99.90;;;;;;5065854;28;20432;-71
2021/12/26 02:07:59;;;;;;;2.53;1.77;;;-5.70;99.90;;;;;;5051551;28;20059;-71
2021/12/26 02:10:25;;;;;;;2.55;1.98;;;-5.70;99.90;;;;;;5049696;28;20094;-71
2021/12/26 02:12:50;;;;;;;3.60;2.20;;;-5.80;99.90;;;;;;5033992;28;20040;-71
2021/12/26 02:15:16;;;;;;;2.22;1.95;;;-5.80;99.90;;;;;;5048850;28;20052;-71
2021/12/26 02:17:42;;;;;;;1.40;1.30;;;-5.80;99.90;;;;;;5047917;28;20037;-71
2021/12/26 02:20:48;;;;;;;2.67;1.35;;;-5.80;99.90;;;;;;5082799;28;21323;-72
2021/12/26 02:23:28;;;;;;;2.92;1.60;;;-5.90;99.90;;;;;;5052751;28;20116;-71
2021/12/26 02:28:26;;;;;;;2.33;1.50;;;-5.90;99.90;;;;;;5039821;28;20106;-71
2021/12/26 02:30:54;;;;;;;1.92;1.45;;;-5.90;99.90;;;;;;5039874;28;20497;-71
2021/12/26 02:33:20;;;;;;;2.08;1.55;;;-5.90;99.90;;;;;;5049657;28;20135;-71
2021/12/26 02:35:48;;;;;;;2.47;1.90;;;-5.90;99.90;;;;;;5032584;28;20123;-71
2021/12/26 02:38:16;;;;;;;4.03;1.75;;;-5.90;99.90;;;;;;5030667;28;20056;-71
2021/12/26 02:40:46;;;;;;;6.15;2.03;;;-5.90;99.90;;;;;;5032224;28;20107;-71
2021/12/26 02:43:14;;;;;;;2.47;1.50;;;-5.90;99.90;;;;;;5026705;28;20094;-71
2021/12/26 02:45:40;;;;;;;2.92;1.50;;;-5.90;99.90;;;;;;5050127;28;20033;-71
2021/12/26 02:48:10;;;;;;;1.80;1.48;;;-5.90;99.90;;;;;;5050214;28;20098;-71
2021/12/26 02:50:38;;;;;;;1.73;1.42;;;-5.90;99.90;;;;;;5049427;28;20110;-71
2021/12/26 02:53:07;;;;;;;2.00;1.67;;;-5.90;99.90;;;;;;5029761;28;20045;-71
2021/12/26 02:55:34;;;;;;;3.20;1.88;;;-5.90;99.90;;;;;;5035583;28;20041;-71
2021/12/26 02:58:03;;;;;;;7.80;1.77;;;-5.90;99.90;;;;;;5034997;28;20128;-71
2021/12/26 03:00:38;;;;;;;1.48;1.38;;;-5.90;99.90;;;;;;5041233;28;20401;-71
2021/12/26 03:03:05;;;;;;;1.83;1.42;;;-5.90;99.90;;;;;;5070257;28;20456;-71
2021/12/26 03:05:35;;;;;;;2.20;2.00;;;-5.90;99.90;;;;;;5065635;28;20036;-71
2021/12/26 03:08:00;;;;;;;2.92;1.70;;;-5.90;99.90;;;;;;5023202;28;20401;-71
2021/12/26 03:10:27;;;;;;;4.25;2.10;;;-5.90;99.90;;;;;;5016693;28;20049;-71
2021/12/26 03:12:56;;;;;;;2.22;1.63;;;-5.90;99.90;;;;;;5042923;28;20374;-71
2021/12/26 03:15:24;;;;;;;2.60;1.60;;;-5.90;99.90;;;;;;5069542;28;20071;-71
2021/12/26 03:17:50;;;;;;;2.75;1.85;;;-5.90;99.90;;;;;;5048921;28;20041;-71
2021/12/26 03:20:20;;;;;;;1.05;1.05;;;-6.00;99.90;;;;;;5032703;28;20558;-71
2021/12/26 03:22:46;;;;;;;2.95;1.92;;;-6.00;99.90;;;;;;5049998;28;20048;-72
2021/12/26 03:25:18;;;;;;;3.28;1.70;;;-6.00;99.90;;;;;;5060723;28;20044;-72
2021/12/26 03:27:43;;;;;;;1.50;1.40;;;-6.00;99.90;;;;;;5044270;28;20048;-71
2021/12/26 03:30:13;;;;;;;1.83;1.50;;;-6.00;99.90;;;;;;5039128;28;20052;-71
2021/12/26 03:32:39;;;;;;;1.92;1.65;;;-6.00;99.90;;;;;;5065582;28;20197;-71
2021/12/26 03:35:06;;;;;;;1.90;1.58;;;-6.00;99.90;;;;;;5081675;28;20124;-71
2021/12/26 03:37:32;;;;;;;4.70;1.83;;;-5.90;99.90;;;;;;5048256;28;20045;-72
2021/12/26 03:39:58;;;;;;;1.77;1.55;;;-5.90;99.90;;;;;;5037202;28;20082;-71
2021/12/26 03:42:24;;;;;;;1.95;1.55;;;-5.90;99.90;;;;;;5048581;28;20578;-71
2021/12/26 03:44:51;;;;;;;1.35;1.25;;;-5.90;99.90;;;;;;5049321;28;20397;-71
2021/12/26 03:47:17;;;;;;;3.35;1.98;;;-6.00;99.90;;;;;;5032544;28;20040;-71
2021/12/26 03:49:44;;;;;;;2.95;1.88;;;-6.00;99.90;;;;;;5081458;28;20043;-71
2021/12/26 03:52:09;;;;;;;2.10;2.00;;;-6.00;99.90;;;;;;5049318;28;20048;-71
2021/12/26 03:54:35;;;;;;;2.25;1.67;;;-6.00;99.90;;;;;;5048310;28;20056;-71
2021/12/26 03:57:01;;;;;;;3.60;2.03;;;-6.10;99.90;;;;;;5048860;28;20049;-71
2021/12/26 03:59:27;;;;;;;1.83;1.35;;;-6.00;99.90;;;;;;5048325;28;20390;-71
2021/12/26 04:01:55;;;;;;;1.45;1.35;;;-6.00;99.90;;;;;;5047026;28;20385;-71
2021/12/26 04:04:21;;;;;;;1.30;1.08;;;-6.00;99.90;;;;;;5059602;28;20130;-71
2021/12/26 04:06:47;;;;;;;2.45;1.73;;;-6.00;99.90;;;;;;5032551;28;20134;-71
2021/12/26 04:09:13;;;;;;;2.03;1.70;;;-6.00;99.90;;;;;;5080836;28;20475;-71
2021/12/26 04:11:43;;;;;;;1.42;1.33;;;-6.00;99.90;;;;;;5083001;28;20409;-71
2021/12/26 04:14:08;;;;;;;4.45;1.90;;;-6.10;99.90;;;;;;5081301;28;20147;-71
2021/12/26 04:16:34;;;;;;;2.78;1.98;;;-6.10;99.90;;;;;;5080542;28;20056;-71
2021/12/26 04:19:00;;;;;;;1.80;1.65;;;-6.10;99.90;;;;;;5041354;28;20043;-71
2021/12/26 04:21:26;;;;;;;2.67;1.52;;;-6.20;99.90;;;;;;5050164;28;20047;-71
2021/12/26 04:23:51;;;;;;;3.55;1.80;;;-6.20;99.90;;;;;;5048614;28;20056;-71
2021/12/26 04:26:17;;;;;;;2.28;1.80;;;-6.20;99.90;;;;;;5045440;28;20073;-71
2021/12/26 04:28:43;;;;;;;3.90;2.40;;;-6.20;99.90;;;;;;5028494;28;20045;-71
2021/12/26 04:31:09;;;;;;;2.03;1.75;;;-6.20;99.90;;;;;;5034764;28;20227;-71
2021/12/26 04:33:34;;;;;;;3.75;1.85;;;-6.30;99.90;;;;;;5048259;28;20097;-71
2021/12/26 04:36:00;;;;;;;1.33;1.23;;;-6.30;99.90;;;;;;5068347;28;20047;-71
2021/12/26 04:38:26;;;;;;;3.10;1.75;;;-6.30;99.90;;;;;;5035456;28;20033;-71
2021/12/26 04:40:52;;;;;;;11.75;1.77;;;-6.40;99.90;;;;;;5033376;28;20401;-71
2021/12/26 04:43:23;;;;;;;3.30;1.92;;;-6.40;99.90;;;;;;5047482;28;20151;-71
2021/12/26 04:45:50;;;;;;;4.03;2.10;;;-6.40;99.90;;;;;;5035009;28;20045;-71
2021/12/26 04:48:17;;;;;;;1.88;1.67;;;-6.40;99.90;;;;;;5052792;28;20484;-71
2021/12/26 04:50:43;;;;;;;4.82;1.90;;;-6.40;99.90;;;;;;5052124;28;20102;-71
2021/12/26 04:53:10;;;;;;;3.75;1.95;;;-6.40;99.90;;;;;;5053640;28;20073;-71
2021/12/26 04:55:36;;;;;;;4.82;2.47;;;-6.40;99.90;;;;;;5075686;28;20168;-71
2021/12/26 04:58:02;;;;;;;1.42;1.33;;;-6.30;99.90;;;;;;5029871;28;20041;-71
2021/12/26 05:00:30;;;;;;;2.25;2.05;;;-6.30;99.90;;;;;;5052483;28;20033;-71
2021/12/26 05:02:58;;;;;;;2.95;2.13;;;-6.30;99.90;;;;;;5052233;28;20075;-71
2021/12/26 05:05:26;;;;;;;4.07;2.33;;;-6.30;99.90;;;;;;5051348;28;20040;-71
2021/12/26 05:07:54;;;;;;;3.60;2.38;;;-6.30;99.90;;;;;;5051629;28;20045;-71
2021/12/26 05:10:21;;;;;;;2.22;1.65;;;-6.20;99.90;;;;;;5054610;28;20358;-71
2021/12/26 05:12:47;;;;;;;3.00;1.92;;;-6.20;99.90;;;;;;5051478;28;20110;-71
2021/12/26 05:15:15;;;;;;;2.20;1.80;;;-6.20;99.90;;;;;;5051370;28;20067;-71
2021/12/26 05:17:40;;;;;;;3.15;2.13;;;-6.20;99.90;;;;;;5033403;28;20452;-71
2021/12/26 05:20:08;;;;;;;3.05;1.88;;;-6.30;99.90;;;;;;5050665;28;20041;-71
2021/12/26 05:22:34;;;;;;;6.55;2.22;;;-6.40;99.90;;;;;;5051551;28;20397;-71
2021/12/26 05:24:59;;;;;;;2.35;2.15;;;-6.40;99.90;;;;;;5100311;28;20036;-71
2021/12/26 05:27:25;;;;;;;2.40;1.77;;;-6.40;99.90;;;;;;5050863;28;20047;-71
2021/12/26 05:29:51;;;;;;;4.07;1.85;;;-6.40;99.90;;;;;;5048948;28;20405;-71
2021/12/26 05:32:17;;;;;;;4.05;1.50;;;-6.40;99.90;;;;;;5055697;28;20083;-71
2021/12/26 05:34:43;;;;;;;2.97;1.73;;;-6.40;99.90;;;;;;5052595;28;20045;-71
2021/12/26 05:37:08;;;;;;;2.60;2.08;;;-6.40;99.90;;;;;;5043148;28;20045;-71
2021/12/26 05:39:34;;;;;;;2.70;1.95;;;-6.40;99.90;;;;;;5052373;28;20127;-71
2021/12/26 05:42:00;;;;;;;5.05;2.40;;;-6.30;99.90;;;;;;5085026;28;20037;-71
2021/12/26 05:44:26;;;;;;;1.85;1.67;;;-6.30;99.90;;;;;;5049592;28;20041;-71
2021/12/26 05:46:51;;;;;;;3.85;2.38;;;-6.30;99.90;;;;;;5085632;28;20041;-71
2021/12/26 05:49:17;;;;;;;1.60;1.50;;;-6.30;99.90;;;;;;5085854;28;20393;-71
2021/12/26 05:51:43;;;;;;;3.92;1.83;;;-6.30;99.90;;;;;;5062142;28;20033;-71
2021/12/26 05:54:09;;;;;;;4.45;2.22;;;-6.30;99.90;;;;;;5085931;28;20052;-71
2021/12/26 05:56:36;;;;;;;4.55;2.25;;;-6.30;99.90;;;;;;5078636;28;20430;-70
2021/12/26 05:59:02;;;;;;;1.98;1.73;;;-6.30;99.90;;;;;;5083800;28;20175;-70
2021/12/26 06:01:28;;;;;;;3.63;2.35;;;-6.30;99.90;;;;;;5051848;28;20079;-70
2021/12/26 06:03:54;;;;;;;3.97;2.20;;;-6.20;99.90;;;;;;5034995;28;20128;-70
2021/12/26 06:06:20;;;;;;;1.98;1.75;;;-6.30;99.90;;;;;;5057354;28;20049;-70
2021/12/26 06:08:45;;;;;;;2.33;1.52;;;-6.30;99.90;;;;;;5034988;28;20041;-70
2021/12/26 06:11:11;;;;;;;7.03;2.30;;;-6.30;99.90;;;;;;5050160;28;20056;-70
2021/12/26 06:13:37;;;;;;;2.67;2.40;;;-6.30;99.90;;;;;;5030458;28;20521;-70
2021/12/26 06:16:03;;;;;;;4.75;2.13;;;-6.30;99.90;;;;;;5051167;28;20045;-70
2021/12/26 06:18:29;;;;;;;2.72;1.70;;;-6.30;99.90;;;;;;5083294;28;20048;-70
2021/12/26 06:20:55;;;;;;;3.17;1.98;;;-6.40;99.90;;;;;;5050468;28;20032;-70
2021/12/26 06:23:20;;;;;;;3.75;2.30;;;-6.40;99.90;;;;;;5055295;28;20037;-70
2021/12/26 06:25:46;;;;;;;5.40;1.92;;;-6.40;99.90;;;;;;5036163;28;20033;-70
2021/12/26 06:28:12;;;;;;;4.10;2.38;;;-6.30;99.90;;;;;;5082862;28;20044;-70
2021/12/26 06:30:38;;;;;;;3.33;2.20;;;-6.30;99.90;;;;;;5039032;28;20379;-70
2021/12/26 06:33:04;;;;;;;5.28;2.60;;;-6.30;99.90;;;;;;5072742;28;20036;-70
2021/12/26 06:35:30;;;;;;;3.08;1.67;;;-6.30;99.90;;;;;;5049911;28;20051;-70
2021/12/26 06:37:56;;;;;;;2.90;1.98;;;-6.30;99.90;;;;;;5050771;28;20041;-70
2021/12/26 06:40:21;;;;;;;3.03;2.30;;;-6.30;99.90;;;;;;5049653;28;20063;-71
2021/12/26 06:42:49;;;;;;;3.20;2.33;;;-6.30;99.90;;;;;;5052691;28;20561;-71
2021/12/26 06:45:18;;;;;;;2.00;1.70;;;-6.30;99.90;;;;;;5033689;28;20045;-70
2021/12/26 06:47:49;;;;;;;4.60;2.70;;;-6.30;99.90;;;;;;5072709;28;20046;-70
2021/12/26 06:50:16;;;;;;;2.33;2.05;;;-6.30;99.90;;;;;;5083362;28;20690;-70
2021/12/26 06:52:42;;;;;;;1.77;1.63;;;-6.20;99.90;;;;;;5050698;28;20041;-70
2021/12/26 06:55:10;;;;;;;4.07;2.35;;;-6.20;99.90;;;;;;5040000;28;20044;-70
2021/12/26 06:57:36;;;;;;;3.40;2.42;;;-6.20;99.90;;;;;;5029767;28;20045;-70
2021/12/26 07:00:07;;;;;;;3.00;2.05;;;-6.20;99.90;;;;;;5051155;28;20048;-70
2021/12/26 07:02:32;;;;;;;5.70;2.10;;;-6.20;99.90;;;;;;5084065;28;20056;-70
2021/12/26 07:04:58;;;;;;;2.38;1.98;;;-6.20;99.90;;;;;;5083130;28;20037;-70
2021/12/26 07:07:24;;;;;;;5.78;2.40;;;-6.20;99.90;;;;;;5083540;28;20045;-70
2021/12/26 07:09:50;;;;;;;4.05;2.55;;;-6.20;99.90;;;;;;5050302;28;20040;-70
2021/12/26 07:12:15;;;;;;;10.18;2.40;;;-6.20;99.90;;;;;;5050372;28;20060;-70
2021/12/26 07:14:41;;;;;;;1.92;1.55;;;-6.20;99.90;;;;;;5050372;28;20048;-70
2021/12/26 07:17:10;;;;;;;3.30;2.30;;;-6.20;99.90;;;;;;5032682;28;20049;-70
2021/12/26 07:19:36;;;;;;;3.65;3.13;;;-6.30;99.90;;;;;;5029466;28;20037;-70
2021/12/26 07:22:02;;;;;;;13.13;4.07;;;-6.20;99.90;;;;;;5082387;28;20393;-70
2021/12/26 07:24:28;;;;;;;3.13;2.33;;;-6.20;99.90;;;;;;5048556;28;20036;-70
2021/12/26 07:26:53;;;;;;;9.10;3.70;;;-6.10;99.90;;;;;;5048340;28;20063;-70
2021/12/26 07:29:19;;;;;;;4.03;2.53;;;-6.10;99.90;;;;;;5081987;28;20396;-70
2021/12/26 07:31:45;;;;;;;2.95;1.80;;;-6.10;99.90;;;;;;5031340;28;20494;-70
2021/12/26 07:34:11;;;;;;;8.13;2.42;;;-6.00;99.90;;;;;;5075563;28;20067;-70
2021/12/26 07:36:36;;;;;;;3.65;2.30;;;-6.10;99.90;;;;;;5048729;28;20071;-70
2021/12/26 07:39:03;;;;;;;3.17;2.03;;;-6.00;99.90;;;;;;5033493;28;20036;-70
2021/12/26 07:41:29;;;;;;;1.65;1.55;;;-6.10;99.90;;;;;;5081814;28;20041;-70
2021/12/26 07:43:55;;;;;;;2.97;1.85;;;-6.10;99.90;;;;;;5079271;28;20041;-70
2021/12/26 07:46:21;;;;;;;3.58;2.35;;;-6.10;99.90;;;;;;5046139;28;20054;-70
2021/12/26 07:48:47;;;;;;;3.15;2.22;;;-6.10;99.90;;;;;;5036465;28;20442;-70
2021/12/26 07:51:12;;;;;;;2.67;2.10;;;-6.10;99.90;;;;;;5052011;28;20040;-70
2021/12/26 07:53:38;;;;;;;7.30;2.83;;;-6.10;99.90;;;;;;5033098;28;20397;-70
2021/12/26 07:56:04;;;;;;;3.50;1.80;;;-6.10;99.90;;;;;;5045767;28;20040;-70
2021/12/26 07:58:30;;;;;;;2.47;1.67;;;-6.10;99.90;;;;;;5048481;28;20045;-70
2021/12/26 08:00:56;;;;;;;3.47;2.55;;;-6.10;99.90;;;;;;5054004;28;20037;-70
2021/12/26 08:03:22;;;;;;;3.30;2.33;;;-6.00;99.90;;;;;;5065210;28;20127;-70
2021/12/26 08:05:48;;;;;;;5.22;3.03;;;-6.00;99.90;;;;;;5053521;28;20206;-70
2021/12/26 08:08:14;;;;;;;5.97;2.50;;;-6.00;99.90;;;;;;5048497;28;20053;-70
2021/12/26 08:10:40;;;;;;;3.80;2.30;;;-5.90;99.90;;;;;;5032168;28;20041;-70
2021/12/26 08:13:05;;;;;;;5.65;2.65;;;-5.80;99.90;;;;;;5034553;28;20048;-70
2021/12/26 08:15:31;;;;;;;5.05;2.65;;;-5.80;99.90;;;;;;5032308;28;20049;-70
2021/12/26 08:17:57;;;;;;;5.45;3.03;;;-5.70;99.90;;;;;;5049004;28;20048;-70
2021/12/26 08:20:23;;;;;;;2.38;2.17;;;-5.70;99.90;;;;;;5048222;28;20041;-70
2021/12/26 08:22:48;;;;;;;4.57;2.60;;;-5.60;99.90;;;;;;5048854;28;20049;-70
2021/12/26 08:25:14;;;;;;;6.18;3.13;;;-5.50;99.90;;;;;;5041662;28;20041;-70
2021/12/26 08:27:40;;;;;;;8.15;2.83;;;-5.40;99.90;;;;;;5047317;28;20463;-70
2021/12/26 08:30:07;;;;;;;3.10;2.67;;;-5.20;99.90;;;;;;5045353;28;20060;-70
2021/12/26 08:32:35;;;;;;;5.68;3.15;;;-5.00;99.90;;;;;;5053489;28;20056;-70
2021/12/26 08:35:04;;;;;;;7.15;3.33;;;-4.70;99.90;;;;;;5077160;28;20099;-70
2021/12/26 08:37:31;;;;;;;2.53;2.13;;;-4.60;99.90;;;;;;5023039;28;20045;-70
2021/12/26 08:39:57;;;;;;;3.40;2.25;;;-4.50;99.80;;;;;;5045859;28;20037;-70
2021/12/26 08:42:22;;;;;;;3.17;2.85;;;-4.30;99.60;;;;;;5044720;28;20044;-71
2021/12/26 08:44:51;;;;;;;4.80;2.35;;;-4.20;99.50;;;;;;5063572;28;20036;-71
2021/12/26 08:47:16;;;;;;;4.00;2.67;;;-3.90;99.20;;;;;;5042962;28;20071;-71
2021/12/26 08:49:42;;;;;;;2.90;2.55;;;-3.60;98.60;;;;;;5081096;28;20080;-71
2021/12/26 08:52:08;;;;;;;3.22;2.78;;;-3.40;97.40;;;;;;5064823;28;20072;-70
2021/12/26 08:54:36;;;;;;;2.78;2.28;;;-3.10;97.60;;;;;;5038059;28;20037;-71
2021/12/26 08:57:05;;;;;;;3.85;1.70;;;-2.90;96.80;;;;;;5079408;28;20460;-71
2021/12/26 08:59:31;;;;;;;3.45;2.45;;;-2.80;96.60;;;;;;5030070;28;20033;-71
2021/12/26 09:01:59;;;;;;;6.25;2.28;;;-2.60;96.10;;;;;;5082964;28;20075;-71
2021/12/26 09:04:25;;;;;;;5.28;3.00;;;-2.50;95.90;;;;;;5033781;28;20033;-71
2021/12/26 09:06:51;;;;;;;3.60;2.42;;;-2.50;94.80;;;;;;5081296;28;20523;-71
2021/12/26 09:09:17;;;;;;;4.15;2.80;;;-2.40;94.70;;;;;;5053890;28;20067;-72
2021/12/26 09:11:43;;;;;;;4.07;2.20;;;-2.30;94.50;;;;;;5052248;28;20041;-72
2021/12/26 09:14:08;;;;;;;2.20;1.95;;;-2.30;94.10;;;;;;5052249;28;20410;-72
2021/12/26 09:16:35;;;;;;;4.10;2.63;;;-2.30;93.50;;;;;;5062109;28;20037;-71
2021/12/26 09:19:03;;;;;;;3.17;2.03;;;-2.20;93.60;;;;;;5058696;28;20047;-72
2021/12/26 09:21:29;;;;;;;3.40;2.05;;;-2.20;92.90;;;;;;5034176;28;20053;-72
2021/12/26 09:23:55;;;;;;;5.18;1.92;;;-2.10;93.80;;;;;;5084326;28;20059;-71
2021/12/26 09:26:21;;;;;;;2.70;2.20;;;-2.00;92.90;;;;;;5053912;28;20116;-72
2021/12/26 09:28:48;;;;;;;2.15;1.95;;;-2.00;92.20;;;;;;5056575;28;20044;-71
2021/12/26 09:31:14;;;;;;;3.60;2.17;;;-2.00;93.00;;;;;;5050823;28;20079;-71
2021/12/26 09:33:40;;;;;;;5.35;2.97;;;-2.00;92.40;;;;;;5054749;28;20619;-72
2021/12/26 09:36:05;;;;;;;5.47;3.17;;;-2.00;92.50;;;;;;5086834;28;20041;-72
2021/12/26 09:38:31;;;;;;;1.73;1.63;;;-2.00;92.10;;;;;;5047095;28;20417;-72
2021/12/26 09:40:59;;;;;;;2.03;1.65;;;-2.00;91.60;;;;;;5041072;28;20037;-72
2021/12/26 09:43:25;;;;;;;10.18;2.25;;;-2.10;92.50;;;;;;5086160;28;20528;-72
2021/12/26 09:45:51;;;;;;;3.50;2.53;;;-2.00;93.40;;;;;;5094827;28;20048;-72
2021/12/26 09:48:17;;;;;;;3.55;2.83;;;-2.00;93.90;;;;;;5045396;28;20044;-72
2021/12/26 09:50:43;;;;;;;2.65;2.20;;;-1.90;93.90;;;;;;5063986;28;20416;-72
2021/12/26 09:53:09;;;;;;;3.80;1.80;;;-1.90;93.40;;;;;;5058318;28;20052;-73
2021/12/26 09:55:35;;;;;;;2.85;2.30;;;-1.90;93.90;;;;;;5055566;28;20045;-73
2021/12/26 09:58:01;;;;;;;3.03;2.65;;;-1.90;93.40;;;;;;5038424;28;20110;-73
2021/12/26 10:00:37;;;;;;;4.45;3.00;;;-2.00;93.20;;;;;;5055369;28;20060;-73
2021/12/26 10:03:20;;;;;;;3.90;2.60;;;-2.00;93.10;;;;;;5052840;28;20036;-73
2021/12/26 10:06:12;;;;;;;6.50;2.30;;;-2.10;93.40;;;;;;5049457;28;20424;-74
2021/12/26 10:08:57;;;;;;;2.40;2.20;;;-2.10;93.80;;;;;;5056938;28;20056;-73
2021/12/26 10:11:29;;;;;;;3.80;2.38;;;-2.10;94.70;;;;;;5041877;28;20052;-74
2021/12/26 10:14:01;;;;;;;5.07;2.73;;;-2.00;93.30;;;;;;5053037;28;20040;-73
2021/12/26 10:16:37;;;;;;;4.50;1.77;;;-2.00;93.20;;;;;;5051029;28;20283;-73
2021/12/26 10:19:05;;;;;;;2.75;2.40;;;-2.00;94.10;;;;;;5078005;28;20041;-74
2021/12/26 10:21:36;;;;;;;4.78;2.47;;;-1.90;94.00;;;;;;5064150;28;20139;-74
2021/12/26 10:24:30;;;;;;;3.30;2.22;;;-1.90;93.00;;;;;;5055960;28;20070;-74
2021/12/26 10:27:06;;;;;;;3.97;2.00;;;-1.80;93.70;;;;;;5039335;28;20044;-74
2021/12/26 10:29:40;;;;;;;4.05;3.10;;;-1.70;93.20;;;;;;5037412;28;20045;-74
2021/12/26 10:32:08;;;;;;;4.57;2.33;;;-1.70;93.30;;;;;;5052753;28;20055;-74
2021/12/26 10:34:43;;;;;;;4.07;2.92;;;-1.60;94.60;;;;;;5046220;28;20037;-74
2021/12/26 10:37:21;;;;;;;2.50;1.95;;;-1.50;94.20;;;;;;5033351;28;20037;-75
2021/12/26 10:39:54;;;;;;;7.60;2.75;;;-1.50;93.50;;;;;;5052138;28;20028;-74
2021/12/26 10:42:25;;;;;;;3.40;2.25;;;-1.40;93.90;;;;;;5028566;28;20584;-75
2021/12/26 10:44:56;;;;;;;4.40;2.67;;;-1.40;93.80;;;;;;5029490;28;20033;-75
2021/12/26 10:47:26;;;;;;;3.83;2.53;;;-1.30;93.60;;;;;;5047597;28;20068;-75
2021/12/26 10:49:57;;;;;;;3.85;2.42;;;-1.30;93.60;;;;;;5033363;28;20088;-75
2021/12/26 10:52:30;;;;;;;3.33;2.70;;;-1.20;93.70;;;;;;5042999;28;20080;-75
2021/12/26 10:55:15;;;;;;;4.70;2.78;;;-1.20;93.80;;;;;;5045429;28;20480;-75
2021/12/26 10:57:46;;;;;;;2.75;2.00;;;-1.10;94.10;;;;;;5048183;28;20123;-76
2021/12/26 11:00:33;;;;;;;4.28;2.90;;;-1.10;94.30;;;;;;5036305;28;20040;-76
2021/12/26 11:03:03;;;;;;;2.05;1.50;;;-1.00;93.70;;;;;;5037891;28;20507;-75
2021/12/26 11:05:35;;;;;;;1.98;1.77;;;-0.90;93.60;;;;;;5060626;28;20505;-76
2021/12/26 11:08:04;;;;;;;2.63;2.00;;;-1.00;94.20;;;;;;5027808;28;20072;-75
2021/12/26 11:10:43;;;;;;;2.15;1.98;;;-0.90;94.40;;;;;;5038725;28;20052;-76
2021/12/26 11:13:16;;;;;;;3.83;2.70;;;-0.90;94.90;;;;;;5056094;28;20051;-75
2021/12/26 11:15:45;;;;;;;3.53;2.40;;;-0.80;95.10;;;;;;5065140;28;20062;-76
2021/12/26 11:18:16;;;;;;;3.70;2.40;;;-0.70;94.70;;;;;;5033133;28;20044;-76
2021/12/26 11:20:51;;;;;;;2.38;1.35;;;-0.60;94.80;;;;;;5043002;28;20029;-76
2021/12/26 11:23:23;;;;;;;5.30;2.78;;;-0.60;94.90;;;;;;5081734;28;20115;-76
2021/12/26 11:25:56;;;;;;;1.17;1.10;;;-0.50;95.00;;;;;;5032580;28;20037;-76
2021/12/26 11:28:28;;;;;;;2.55;2.05;;;-0.50;95.10;;;;;;5052737;28;20041;-76
2021/12/26 11:31:16;;;;;;;3.80;1.83;;;-0.40;95.90;;;;;;5066776;28;20041;-76
2021/12/26 11:33:42;;;;;;;3.60;2.20;;;-0.40;95.50;;;;;;5045456;28;20048;-76
2021/12/26 11:36:11;;;;;;;6.47;2.08;;;-0.20;95.20;;;;;;5050412;28;20045;-76
2021/12/26 11:38:38;;;;;;;3.55;2.08;;;-0.20;95.00;;;;;;5042256;28;20087;-76
2021/12/26 11:41:20;;;;;;;5.18;2.65;;;-0.10;95.00;;;;;;5047851;28;20068;-76
2021/12/26 11:43:54;;;;;;;3.78;2.40;;;0.00;93.80;;;;;;5060101;28;20048;-77
2021/12/26 11:46:39;;;;;;;2.63;2.35;;;-0.10;93.40;;;;;;5059130;28;20036;-76
2021/12/26 11:49:29;;;;;;;4.88;2.75;;;0.00;94.00;;;;;;5051028;28;20123;-76
2021/12/26 11:52:10;;;;;;;3.35;2.35;;;0.00;94.00;;;;;;5034996;28;20057;-76
2021/12/26 11:54:55;;;;;;;2.70;2.17;;;0.00;94.20;;;;;;5049130;28;20095;-77
2021/12/26 11:57:40;;;;;;;3.00;2.28;;;0.10;93.50;;;;;;5046878;28;20041;-76
2021/12/26 12:00:09;;;;;;;2.58;1.52;;;0.10;94.20;;;;;;5070817;28;20043;-77
2021/12/26 12:02:46;;;;;;;4.35;2.70;;;0.20;94.90;;;;;;5098820;28;20153;-77
2021/12/26 12:05:20;;;;;;;4.47;2.33;;;0.30;94.80;;;;;;5046073;28;20067;-77
2021/12/26 12:08:01;;;;;;;2.88;2.38;;;0.30;94.20;;;;;;5054830;28;20044;-76
2021/12/26 12:10:40;;;;;;;4.85;3.17;;;0.30;94.00;;;;;;5076967;28;20041;-77
2021/12/26 12:13:09;;;;;;;3.10;1.90;;;0.40;94.10;;;;;;5048124;28;20043;-76
2021/12/26 12:15:50;;;;;;;6.82;2.20;;;0.40;93.60;;;;;;5051132;28;20055;-77
2021/12/26 12:18:29;;;;;;;3.67;1.88;;;0.40;93.80;;;;;;5055116;28;20048;-76
2021/12/26 12:21:17;;;;;;;1.35;1.25;;;0.40;93.70;;;;;;5098223;28;20052;-76
2021/12/26 12:24:07;;;;;;;4.90;2.72;;;0.30;93.50;;;;;;5067773;28;20033;-76
2021/12/26 12:26:54;;;;;;;4.10;2.72;;;0.30;93.00;;;;;;5039475;28;20046;-77
2021/12/26 12:29:29;;;;;;;4.40;2.25;;;0.30;92.60;;;;;;5021225;28;20051;-77
2021/12/26 12:32:07;;;;;;;5.35;2.53;;;0.30;93.70;;;;;;5033591;28;20072;-76
2021/12/26 12:35:16;;;;;;;5.32;2.20;;;0.30;94.10;;;;;;5036507;28;20124;-77
2021/12/26 12:37:46;;;;;;;5.20;2.70;;;0.40;94.20;;;;;;4996442;28;20065;-76
2021/12/26 12:40:19;;;;;;;3.22;2.15;;;0.40;94.30;;;;;;5056241;28;20068;-77
2021/12/26 12:43:05;;;;;;;3.88;2.22;;;0.40;94.10;;;;;;5052308;28;20540;-76
2021/12/26 12:45:54;;;;;;;4.47;2.47;;;0.40;94.10;;;;;;5061103;28;20037;-77
2021/12/26 12:48:29;;;;;;;6.70;2.95;;;0.30;94.00;;;;;;5060271;28;20412;-76
2021/12/26 12:51:18;;;;;;;4.18;2.45;;;0.30;94.90;;;;;;5051945;28;20044;-76
2021/12/26 12:54:04;;;;;;;6.25;3.30;;;0.30;93.50;;;;;;5031366;28;20084;-76
2021/12/26 12:56:36;;;;;;;5.80;2.60;;;0.30;93.30;;;;;;5062274;28;20118;-76
2021/12/26 12:59:18;;;;;;;5.93;2.60;;;0.30;93.50;;;;;;5069158;28;20040;-76
2021/12/26 13:01:49;;;;;;;7.95;2.63;;;0.20;93.70;;;;;;5045428;28;20396;-76